createdAt,value
2022-10-21T00:00:09.865Z,86.89
2022-10-21T00:01:15.155Z,86.87
2022-10-21T00:02:18.347Z,87.28
2022-10-21T00:03:22.433Z,87.04
2022-10-21T00:04:25.511Z,86.88
2022-10-21T00:05:28.923Z,86.87
2022-10-21T00:06:32.503Z,86.72
2022-10-21T00:07:35.906Z,86.55
2022-10-21T00:08:38.700Z,86.60
2022-10-21T00:09:43.851Z,87.32
2022-10-21T00:10:49.846Z,86.69
2022-10-21T00:11:53.661Z,87.02
2022-10-21T00:12:57.922Z,86.77
2022-10-21T00:14:02.474Z,87.00
2022-10-21T00:15:09.176Z,86.89
2022-10-21T00:16:13.694Z,86.76
2022-10-21T00:17:18.828Z,86.62
2022-10-21T00:18:22.076Z,86.80
2022-10-21T00:19:26.641Z,87.30
2022-10-21T00:20:29.701Z,87.30
2022-10-21T00:21:32.988Z,87.36
2022-10-21T00:22:36.555Z,86.82
2022-10-21T00:23:39.992Z,86.74
2022-10-21T00:24:42.593Z,87.13
2022-10-21T00:25:46.558Z,88.12
2022-10-21T00:26:50.135Z,88.35
2022-10-21T00:27:52.379Z,88.17
2022-10-21T00:28:55.829Z,87.93
2022-10-21T00:29:59.185Z,88.90
2022-10-21T00:31:02.681Z,88.97
2022-10-21T00:32:06.105Z,89.02
2022-10-21T00:33:09.345Z,89.44
2022-10-21T00:34:11.504Z,89.80
2022-10-21T00:35:14.869Z,89.82
2022-10-21T00:36:17.991Z,89.43
2022-10-21T00:37:22.313Z,89.37
2022-10-21T00:38:26.670Z,89.51
2022-10-21T00:39:31.882Z,88.53
2022-10-21T00:40:34.490Z,88.38
2022-10-21T00:41:37.624Z,88.54
2022-10-21T00:42:45.710Z,88.13
2022-10-21T00:44:02.263Z,87.92
2022-10-21T00:45:06.643Z,87.63
2022-10-21T00:46:11.636Z,87.67
2022-10-21T00:47:21.459Z,87.84
2022-10-21T00:48:32.177Z,88.28
2022-10-21T00:49:41.915Z,88.58
2022-10-21T00:51:03.512Z,89.08
2022-10-21T00:52:11.175Z,88.45
2022-10-21T00:53:16.110Z,88.33
2022-10-21T00:54:20.529Z,88.50
2022-10-21T00:55:25.367Z,88.83
2022-10-21T00:56:30.204Z,88.57
2022-10-21T00:57:35.315Z,88.76
2022-10-21T00:58:38.834Z,88.76
2022-10-21T00:59:44.469Z,88.69
2022-10-21T01:00:47.752Z,88.60
2022-10-21T01:01:50.463Z,88.79
2022-10-21T01:02:53.622Z,89.28
2022-10-21T01:03:56.917Z,89.57
2022-10-21T01:05:02.881Z,89.41
2022-10-21T01:06:10.383Z,89.40
2022-10-21T01:07:14.006Z,89.86
2022-10-21T01:08:17.216Z,90.02
2022-10-21T01:09:20.602Z,89.87
2022-10-21T01:10:23.659Z,90.03
2022-10-21T01:11:27.701Z,89.49
2022-10-21T01:12:37.299Z,89.13
2022-10-21T01:13:51.473Z,88.95
2022-10-21T01:15:12.347Z,89.57
2022-10-21T01:16:26.774Z,89.21
2022-10-21T01:17:47.052Z,89.23
2022-10-21T01:18:58.483Z,89.03
2022-10-21T01:20:23.989Z,89.12
2022-10-21T01:21:31.772Z,89.45
2022-10-21T01:22:51.933Z,89.17
2022-10-21T01:23:57.190Z,89.19
2022-10-21T01:25:14.200Z,89.40
2022-10-21T01:26:34.394Z,89.52
2022-10-21T01:27:50.414Z,90.10
2022-10-21T01:28:56.275Z,89.37
2022-10-21T01:30:14.153Z,89.52
2022-10-21T01:31:18.216Z,89.27
2022-10-21T01:32:26.258Z,89.50
2022-10-21T01:33:31.344Z,89.79
2022-10-21T01:34:42.163Z,89.72
2022-10-21T01:35:49.848Z,89.83
2022-10-21T01:37:11.677Z,89.76
2022-10-21T01:38:26.938Z,90.45
2022-10-21T01:39:31.945Z,89.92
2022-10-21T01:40:36.430Z,89.92
2022-10-21T01:41:46.975Z,90.72
2022-10-21T01:42:52.990Z,91.33
2022-10-21T01:44:16.473Z,90.78
2022-10-21T01:45:20.520Z,90.83
2022-10-21T01:46:24.874Z,90.52
2022-10-21T01:47:29.795Z,90.57
2022-10-21T01:48:34.938Z,90.53
2022-10-21T01:49:48.021Z,91.04
2022-10-21T01:50:59.892Z,91.41
2022-10-21T01:52:05.582Z,91.06
2022-10-21T01:53:10.541Z,91.11
2022-10-21T01:54:15.171Z,91.38
2022-10-21T01:55:24.610Z,91.65
2022-10-21T01:56:28.900Z,91.61
2022-10-21T01:57:33.042Z,91.84
2022-10-21T01:58:37.903Z,91.70
2022-10-21T01:59:43.341Z,92.02
2022-10-21T02:00:48.787Z,91.60
2022-10-21T02:01:52.410Z,92.04
2022-10-21T02:02:56.510Z,93.08
2022-10-21T02:04:00.609Z,93.29
2022-10-21T02:05:04.931Z,93.37
2022-10-21T02:06:10.029Z,93.68
2022-10-21T02:07:12.271Z,93.55
2022-10-21T02:08:16.299Z,93.38
2022-10-21T02:09:20.279Z,93.81
2022-10-21T02:10:24.459Z,93.89
2022-10-21T02:11:28.143Z,93.71
2022-10-21T02:12:33.494Z,93.65
2022-10-21T02:13:38.907Z,93.69
2022-10-21T02:14:43.886Z,94.07
2022-10-21T02:15:47.515Z,93.89
2022-10-21T02:16:52.677Z,93.83
2022-10-21T02:17:59.762Z,93.73
2022-10-21T02:19:02.912Z,93.75
2022-10-21T02:20:09.029Z,93.77
2022-10-21T02:21:17.005Z,93.78
2022-10-21T02:22:22.183Z,93.59
2022-10-21T02:23:36.438Z,93.40
2022-10-21T02:24:41.926Z,93.84
2022-10-21T02:25:46.646Z,94.57
2022-10-21T02:26:51.630Z,94.64
2022-10-21T02:27:55.333Z,94.71
2022-10-21T02:28:59.734Z,94.71
2022-10-21T02:30:04.257Z,95.19
2022-10-21T02:31:13.254Z,94.46
2022-10-21T02:32:20.946Z,94.43
2022-10-21T02:33:26.697Z,94.34
2022-10-21T02:34:47.737Z,94.43
2022-10-21T02:36:00.523Z,94.39
2022-10-21T02:37:14.672Z,94.20
2022-10-21T02:38:19.614Z,94.10
2022-10-21T02:39:27.771Z,93.50
2022-10-21T02:40:32.913Z,93.79
2022-10-21T02:41:38.101Z,93.59
2022-10-21T02:42:43.080Z,93.54
2022-10-21T02:43:48.155Z,93.46
2022-10-21T02:44:52.454Z,93.44
2022-10-21T02:45:57.477Z,93.59
2022-10-21T02:47:00.697Z,93.53
2022-10-21T02:48:04.530Z,93.61
2022-10-21T02:49:07.848Z,93.69
2022-10-21T02:50:14.272Z,93.93
2022-10-21T02:51:16.717Z,93.85
2022-10-21T02:52:19.951Z,93.61
2022-10-21T02:53:22.182Z,93.67
2022-10-21T02:54:24.390Z,93.70
2022-10-21T02:55:31.177Z,93.92
2022-10-21T02:56:35.774Z,93.93
2022-10-21T02:57:39.229Z,93.42
2022-10-21T02:58:42.687Z,93.69
2022-10-21T02:59:45.906Z,93.62
2022-10-21T03:00:49.435Z,93.58
2022-10-21T03:01:53.057Z,93.64
2022-10-21T03:02:56.315Z,94.07
2022-10-21T03:03:59.351Z,94.15
2022-10-21T03:05:02.467Z,94.32
2022-10-21T03:06:05.827Z,94.45
2022-10-21T03:07:12.211Z,94.46
2022-10-21T03:08:15.742Z,95.04
2022-10-21T03:09:17.955Z,94.63
2022-10-21T03:10:21.505Z,94.16
2022-10-21T03:11:23.842Z,94.02
2022-10-21T03:12:26.358Z,93.71
2022-10-21T03:13:31.067Z,93.48
2022-10-21T03:14:35.237Z,93.50
2022-10-21T03:15:38.618Z,93.35
2022-10-21T03:16:41.696Z,93.83
2022-10-21T03:17:44.774Z,93.97
2022-10-21T03:18:48.702Z,93.98
2022-10-21T03:19:51.812Z,93.96
2022-10-21T03:20:57.714Z,94.49
2022-10-21T03:22:01.067Z,94.87
2022-10-21T03:23:04.657Z,95.10
2022-10-21T03:24:11.077Z,95.44
2022-10-21T03:25:13.722Z,95.37
2022-10-21T03:26:17.098Z,95.33
2022-10-21T03:27:19.673Z,95.27
2022-10-21T03:28:23.246Z,94.92
2022-10-21T03:29:29.390Z,94.97
2022-10-21T03:30:32.686Z,94.52
2022-10-21T03:31:35.246Z,93.93
2022-10-21T03:32:38.199Z,94.01
2022-10-21T03:33:41.445Z,93.76
2022-10-21T03:34:45.003Z,93.72
2022-10-21T03:35:48.226Z,93.84
2022-10-21T03:36:53.350Z,93.62
2022-10-21T03:39:00.766Z,93.77
2022-10-21T03:40:06.407Z,93.96
2022-10-21T03:41:09.751Z,93.53
2022-10-21T03:42:12.931Z,93.95
2022-10-21T03:43:16.031Z,93.73
2022-10-21T03:44:18.289Z,93.25
2022-10-21T03:45:21.521Z,93.30
2022-10-21T03:46:27.255Z,93.25
2022-10-21T03:47:30.405Z,93.29
2022-10-21T03:48:33.643Z,93.63
2022-10-21T03:49:36.748Z,93.85
2022-10-21T03:50:38.947Z,93.56
2022-10-21T03:51:44.624Z,93.47
2022-10-21T03:52:52.226Z,93.65
2022-10-21T03:53:54.792Z,93.46
2022-10-21T03:54:58.298Z,93.17
2022-10-21T03:56:01.605Z,93.03
2022-10-21T03:57:04.892Z,92.73
2022-10-21T03:58:08.060Z,92.97
2022-10-21T03:59:10.280Z,92.58
2022-10-21T04:00:15.859Z,92.53
2022-10-21T04:01:18.943Z,92.03
2022-10-21T04:02:22.034Z,92.13
2022-10-21T04:03:25.275Z,92.07
2022-10-21T04:04:30.464Z,92.12
2022-10-21T04:05:33.787Z,92.13
2022-10-21T04:06:36.029Z,91.94
2022-10-21T04:07:39.869Z,92.18
2022-10-21T04:08:44.244Z,92.40
2022-10-21T04:09:46.809Z,92.45
2022-10-21T04:10:50.136Z,92.65
2022-10-21T04:11:53.410Z,92.33
2022-10-21T04:12:56.666Z,92.54
2022-10-21T04:13:59.831Z,93.08
2022-10-21T04:15:04.225Z,92.28
2022-10-21T04:16:11.189Z,92.18
2022-10-21T04:17:15.346Z,91.94
2022-10-21T04:18:18.649Z,92.00
2022-10-21T04:19:21.833Z,92.14
2022-10-21T04:20:26.158Z,91.91
2022-10-21T04:21:31.315Z,92.21
2022-10-21T04:22:33.883Z,92.81
2022-10-21T04:23:37.433Z,92.26
2022-10-21T04:24:41.912Z,93.30
2022-10-21T04:25:44.279Z,93.34
2022-10-21T04:26:49.207Z,93.77
2022-10-21T04:27:52.264Z,93.10
2022-10-21T04:28:55.230Z,93.07
2022-10-21T04:29:57.478Z,92.15
2022-10-21T04:31:02.078Z,91.87
2022-10-21T04:32:07.700Z,91.85
2022-10-21T04:33:11.200Z,91.49
2022-10-21T04:34:14.094Z,91.22
2022-10-21T04:35:17.939Z,91.20
2022-10-21T04:36:20.565Z,91.40
2022-10-21T04:37:24.014Z,91.21
2022-10-21T04:38:27.231Z,91.24
2022-10-21T04:39:30.383Z,91.17
2022-10-21T04:40:32.487Z,91.04
2022-10-21T04:41:35.762Z,90.82
2022-10-21T04:42:39.914Z,90.39
2022-10-21T04:43:42.586Z,90.27
2022-10-21T04:44:46.018Z,90.22
2022-10-21T04:45:50.262Z,89.97
2022-10-21T04:46:53.566Z,89.84
2022-10-21T04:47:56.561Z,89.91
2022-10-21T04:48:58.842Z,89.51
2022-10-21T04:50:01.627Z,89.25
2022-10-21T04:51:04.910Z,89.30
2022-10-21T04:52:08.182Z,89.48
2022-10-21T04:53:11.486Z,89.41
2022-10-21T04:54:14.704Z,89.32
2022-10-21T04:55:17.371Z,88.42
2022-10-21T04:56:20.540Z,88.31
2022-10-21T04:57:23.790Z,88.64
2022-10-21T04:58:26.834Z,88.43
2022-10-21T04:59:29.802Z,88.00
2022-10-21T05:00:35.710Z,87.70
2022-10-21T05:01:38.859Z,87.80
2022-10-21T05:02:43.038Z,87.90
2022-10-21T05:03:47.301Z,88.18
2022-10-21T05:04:50.775Z,87.71
2022-10-21T05:05:55.912Z,87.91
2022-10-21T05:06:59.396Z,87.87
2022-10-21T05:08:02.717Z,88.19
2022-10-21T05:09:07.764Z,88.14
2022-10-21T05:10:14.018Z,88.39
2022-10-21T05:11:16.229Z,87.99
2022-10-21T05:12:19.568Z,87.80
2022-10-21T05:13:22.950Z,87.50
2022-10-21T05:14:27.301Z,87.68
2022-10-21T05:15:31.072Z,87.77
2022-10-21T05:16:33.315Z,88.22
2022-10-21T05:17:37.239Z,87.86
2022-10-21T05:18:41.161Z,87.40
2022-10-21T05:19:44.374Z,87.05
2022-10-21T05:20:50.117Z,86.53
2022-10-21T05:21:53.286Z,86.88
2022-10-21T05:22:55.546Z,86.58
2022-10-21T05:23:58.746Z,86.45
2022-10-21T05:25:04.041Z,85.82
2022-10-21T05:26:07.410Z,85.18
2022-10-21T05:27:10.682Z,85.78
2022-10-21T05:28:13.381Z,86.63
2022-10-21T05:29:18.262Z,85.18
2022-10-21T05:30:21.462Z,84.16
2022-10-21T05:31:25.219Z,83.97
2022-10-21T05:32:28.327Z,83.49
2022-10-21T05:33:31.537Z,83.28
2022-10-21T05:34:35.135Z,82.59
2022-10-21T05:35:38.218Z,82.96
2022-10-21T05:36:41.429Z,82.60
2022-10-21T05:37:44.497Z,81.08
2022-10-21T05:38:47.755Z,80.89
2022-10-21T05:39:50.801Z,80.68
2022-10-21T05:40:53.879Z,80.87
2022-10-21T05:41:56.606Z,80.69
2022-10-21T05:42:59.671Z,80.73
2022-10-21T05:44:02.742Z,80.87
2022-10-21T05:45:06.587Z,80.59
2022-10-21T05:46:09.345Z,80.79
2022-10-21T05:47:12.408Z,80.30
2022-10-21T05:48:17.972Z,80.20
2022-10-21T05:49:22.363Z,79.94
2022-10-21T05:50:25.426Z,79.94
2022-10-21T05:51:29.221Z,79.77
2022-10-21T05:52:32.521Z,79.60
2022-10-21T05:53:36.165Z,79.39
2022-10-21T05:54:39.299Z,79.45
2022-10-21T05:55:42.825Z,79.51
2022-10-21T05:56:45.842Z,79.71
2022-10-21T05:58:53.333Z,80.84
2022-10-21T05:59:56.688Z,81.03
2022-10-21T06:01:03.325Z,80.97
2022-10-21T06:02:05.831Z,80.54
2022-10-21T06:03:08.879Z,80.41
2022-10-21T06:04:12.194Z,80.68
2022-10-21T06:05:14.358Z,79.68
2022-10-21T06:06:16.554Z,80.26
2022-10-21T06:07:19.940Z,80.93
2022-10-21T06:08:23.396Z,80.31
2022-10-21T06:09:26.041Z,80.13
2022-10-21T06:10:29.210Z,79.41
2022-10-21T06:11:32.783Z,79.29
2022-10-21T06:12:36.041Z,78.73
2022-10-21T06:13:40.787Z,77.93
2022-10-21T06:14:44.011Z,76.68
2022-10-21T06:15:51.091Z,75.31
2022-10-21T06:16:52.859Z,74.03
2022-10-21T06:17:59.498Z,73.48
2022-10-21T06:19:03.199Z,72.59
2022-10-21T06:20:05.962Z,72.52
2022-10-21T06:21:09.535Z,71.85
2022-10-21T06:22:12.773Z,71.02
2022-10-21T06:23:15.795Z,70.21
2022-10-21T06:24:18.442Z,70.40
2022-10-21T06:25:23.043Z,69.39
2022-10-21T06:26:26.626Z,69.22
2022-10-21T06:27:29.770Z,69.16
2022-10-21T06:28:33.133Z,69.08
2022-10-21T06:29:36.301Z,68.74
2022-10-21T06:30:39.372Z,68.39
2022-10-21T06:31:42.608Z,68.91
2022-10-21T06:32:46.009Z,69.16
2022-10-21T06:33:49.426Z,68.61
2022-10-21T06:34:52.503Z,68.60
2022-10-21T06:35:56.067Z,68.52
2022-10-21T06:36:59.294Z,68.53
2022-10-21T06:38:02.477Z,67.97
2022-10-21T06:39:13.008Z,67.20
2022-10-21T06:40:16.513Z,66.45
2022-10-21T06:41:18.839Z,66.30
2022-10-21T06:42:21.898Z,66.12
2022-10-21T06:43:25.211Z,65.46
2022-10-21T06:44:28.802Z,65.32
2022-10-21T06:45:31.702Z,65.79
2022-10-21T06:46:35.192Z,66.80
2022-10-21T06:47:39.798Z,68.59
2022-10-21T06:48:43.333Z,67.71
2022-10-21T06:49:49.068Z,65.73
2022-10-21T06:50:54.300Z,63.16
2022-10-21T06:51:57.935Z,61.12
2022-10-21T06:53:01.993Z,60.15
2022-10-21T06:54:04.520Z,56.71
2022-10-21T06:55:08.439Z,50.98
2022-10-21T06:56:13.383Z,46.78
2022-10-21T06:57:16.495Z,43.60
2022-10-21T06:58:19.613Z,40.64
2022-10-21T06:59:22.264Z,39.08
2022-10-21T07:00:33.229Z,38.36
2022-10-21T07:02:43.352Z,36.78
2022-10-21T07:03:50.453Z,35.57
2022-10-21T07:04:52.994Z,34.36
2022-10-21T07:05:59.801Z,32.73
2022-10-21T07:07:02.841Z,31.40
2022-10-21T07:08:10.609Z,30.84
2022-10-21T07:09:13.263Z,31.20
2022-10-21T07:10:16.710Z,30.08
2022-10-21T07:11:19.773Z,29.63
2022-10-21T07:12:22.534Z,29.44
2022-10-21T07:13:26.259Z,28.87
2022-10-21T07:14:29.521Z,28.37
2022-10-21T07:15:32.778Z,28.29
2022-10-21T07:16:38.317Z,28.79
2022-10-21T07:17:41.956Z,28.60
2022-10-21T07:18:45.525Z,28.75
2022-10-21T07:19:49.898Z,27.94
2022-10-21T07:20:53.008Z,29.13
2022-10-21T07:21:56.066Z,28.18
2022-10-21T07:22:59.355Z,26.88
2022-10-21T07:24:02.514Z,26.33
2022-10-21T07:25:05.061Z,26.11
2022-10-21T07:26:09.080Z,27.05
2022-10-21T07:27:12.176Z,25.47
2022-10-21T07:28:15.412Z,26.00
2022-10-21T07:29:19.899Z,25.19
2022-10-21T07:30:23.948Z,24.59
2022-10-21T07:31:27.945Z,25.40
2022-10-21T07:32:31.332Z,26.54
2022-10-21T07:33:35.052Z,26.08
2022-10-21T07:34:38.649Z,25.76
2022-10-21T07:35:41.151Z,25.14
2022-10-21T07:36:49.722Z,24.72
2022-10-21T07:37:52.803Z,24.72
2022-10-21T07:38:57.181Z,24.41
2022-10-21T07:40:00.470Z,24.86
2022-10-21T07:41:04.730Z,24.99
2022-10-21T07:42:08.940Z,25.03
2022-10-21T07:43:11.884Z,24.37
2022-10-21T07:44:16.811Z,25.58
2022-10-21T07:45:19.850Z,26.37
2022-10-21T07:46:22.590Z,25.83
2022-10-21T07:47:26.393Z,25.22
2022-10-21T07:48:29.449Z,24.57
2022-10-21T07:49:32.624Z,24.28
2022-10-21T07:50:35.233Z,24.92
2022-10-21T07:51:39.340Z,24.20
2022-10-21T07:52:55.947Z,23.91
2022-10-21T07:53:54.330Z,24.70
2022-10-21T07:54:57.397Z,24.50
2022-10-21T07:56:05.365Z,24.19
2022-10-21T07:57:09.220Z,24.40
2022-10-21T07:58:12.331Z,23.68
2022-10-21T07:59:15.142Z,24.56
2022-10-21T08:00:18.320Z,24.20
2022-10-21T08:01:21.030Z,23.52
2022-10-21T08:02:25.273Z,23.77
2022-10-21T08:03:28.556Z,24.02
2022-10-21T08:04:32.607Z,24.24
2022-10-21T08:05:35.130Z,24.09
2022-10-21T08:06:37.972Z,24.76
2022-10-21T08:07:43.122Z,25.52
2022-10-21T08:08:46.672Z,26.60
2022-10-21T08:09:49.812Z,27.03
2022-10-21T08:10:54.352Z,25.37
2022-10-21T08:11:58.240Z,25.83
2022-10-21T08:13:01.218Z,25.68
2022-10-21T08:14:07.243Z,27.02
2022-10-21T08:15:10.711Z,28.25
2022-10-21T08:16:14.676Z,29.19
2022-10-21T08:17:18.583Z,29.67
2022-10-21T08:18:21.958Z,29.62
2022-10-21T08:19:27.280Z,30.08
2022-10-21T08:20:30.366Z,29.67
2022-10-21T08:21:35.110Z,32.00
2022-10-21T08:22:38.635Z,33.38
2022-10-21T08:23:42.019Z,36.01
2022-10-21T08:24:45.075Z,38.48
2022-10-21T08:25:50.055Z,38.92
2022-10-21T08:26:53.242Z,38.15
2022-10-21T08:27:56.505Z,39.10
2022-10-21T08:29:03.132Z,40.02
2022-10-21T08:30:06.859Z,39.87
2022-10-21T08:31:14.674Z,40.50
2022-10-21T08:32:17.719Z,40.90
2022-10-21T08:33:19.882Z,42.19
2022-10-21T08:34:23.514Z,41.16
2022-10-21T08:35:27.142Z,41.76
2022-10-21T08:36:30.276Z,42.24
2022-10-21T08:37:35.052Z,41.48
2022-10-21T08:38:38.119Z,41.71
2022-10-21T08:39:41.146Z,41.91
2022-10-21T08:40:46.244Z,41.37
2022-10-21T08:42:03.281Z,40.34
2022-10-21T08:43:08.534Z,40.26
2022-10-21T08:44:12.546Z,40.95
2022-10-21T08:45:18.451Z,40.92
2022-10-21T08:46:23.589Z,40.55
2022-10-21T08:47:42.189Z,40.57
2022-10-21T08:48:50.173Z,39.45
2022-10-21T08:50:01.116Z,40.13
2022-10-21T08:51:06.198Z,39.90
2022-10-21T08:52:17.302Z,39.73
2022-10-21T08:53:27.690Z,39.00
2022-10-21T08:54:38.064Z,39.84
2022-10-21T08:55:42.494Z,41.08
2022-10-21T08:56:46.996Z,41.71
2022-10-21T08:57:51.999Z,40.60
2022-10-21T08:58:58.374Z,40.63
2022-10-21T09:00:01.676Z,41.40
2022-10-21T09:01:08.475Z,42.14
2022-10-21T09:02:16.947Z,41.62
2022-10-21T09:03:24.024Z,42.11
2022-10-21T09:04:46.654Z,43.59
2022-10-21T09:06:08.438Z,42.87
2022-10-21T09:07:16.244Z,42.84
2022-10-21T09:08:36.602Z,41.83
2022-10-21T09:09:44.531Z,42.11
2022-10-21T09:10:58.235Z,42.26
2022-10-21T09:12:18.781Z,42.92
2022-10-21T09:13:43.119Z,43.17
2022-10-21T09:14:48.091Z,42.31
2022-10-21T09:15:53.158Z,42.45
2022-10-21T09:17:18.966Z,43.37
2022-10-21T09:18:36.160Z,44.17
2022-10-21T09:19:44.275Z,44.65
2022-10-21T09:20:56.585Z,44.23
2022-10-21T09:22:29.585Z,46.81
2022-10-21T09:24:39.708Z,43.45
2022-10-21T09:25:54.658Z,43.18
2022-10-21T09:26:58.859Z,43.71
2022-10-21T09:29:27.635Z,44.69
2022-10-21T09:30:31.530Z,44.23
2022-10-21T09:31:36.920Z,44.65
2022-10-21T09:32:43.752Z,44.36
2022-10-21T09:33:52.894Z,44.23
2022-10-21T09:35:08.309Z,44.15
2022-10-21T09:36:19.968Z,43.90
2022-10-21T09:37:26.210Z,43.92
2022-10-21T09:38:31.566Z,44.10
2022-10-21T09:39:37.253Z,43.38
2022-10-21T09:40:41.384Z,44.00
2022-10-21T09:41:46.254Z,44.09
2022-10-21T09:42:54.025Z,43.81
2022-10-21T09:43:57.684Z,42.95
2022-10-21T09:45:01.369Z,43.39
2022-10-21T09:46:03.828Z,42.15
2022-10-21T09:47:07.845Z,41.88
2022-10-21T09:48:35.521Z,42.67
2022-10-21T09:50:43.856Z,42.20
2022-10-21T09:51:50.485Z,42.35
2022-10-21T09:52:55.987Z,42.61
2022-10-21T09:54:14.023Z,42.17
2022-10-21T09:55:17.438Z,42.41
2022-10-21T09:56:26.544Z,42.48
2022-10-21T09:57:52.507Z,41.65
2022-10-21T09:59:05.136Z,42.30
2022-10-21T10:00:08.281Z,42.18
2022-10-21T10:01:20.364Z,42.20
2022-10-21T10:02:27.612Z,43.02
2022-10-21T10:03:38.545Z,43.67
2022-10-21T10:04:41.849Z,43.44
2022-10-21T10:05:47.131Z,43.47
2022-10-21T10:06:50.465Z,44.05
2022-10-21T10:07:56.105Z,44.81
2022-10-21T10:09:07.029Z,44.93
2022-10-21T10:10:29.977Z,45.39
2022-10-21T10:11:33.160Z,45.24
2022-10-21T10:12:36.466Z,44.36
2022-10-21T10:13:44.869Z,45.14
2022-10-21T10:14:49.430Z,45.92
2022-10-21T10:15:53.247Z,46.32
2022-10-21T10:16:57.579Z,46.51
2022-10-21T10:18:01.189Z,45.49
2022-10-21T10:19:21.659Z,45.96
2022-10-21T10:20:25.338Z,45.67
2022-10-21T10:21:28.738Z,45.10
2022-10-21T10:22:33.287Z,45.56
2022-10-21T10:23:37.818Z,46.06
2022-10-21T10:24:45.091Z,45.74
2022-10-21T10:25:49.966Z,45.53
2022-10-21T10:26:53.503Z,45.29
2022-10-21T10:28:01.381Z,46.00
2022-10-21T10:29:13.225Z,45.37
2022-10-21T10:30:16.389Z,45.19
2022-10-21T10:31:26.813Z,44.58
2022-10-21T10:32:32.186Z,45.63
2022-10-21T10:33:37.757Z,45.67
2022-10-21T10:34:41.819Z,46.03
2022-10-21T10:35:48.247Z,45.13
2022-10-21T10:36:54.614Z,44.84
2022-10-21T10:38:01.054Z,45.01
2022-10-21T10:39:07.760Z,44.62
2022-10-21T10:40:12.597Z,44.47
2022-10-21T10:41:17.877Z,44.88
2022-10-21T10:42:25.744Z,44.58
2022-10-21T10:43:31.754Z,44.64
2022-10-21T10:44:38.908Z,45.35
2022-10-21T10:45:49.265Z,45.19
2022-10-21T10:47:00.794Z,45.02
2022-10-21T10:48:07.659Z,45.19
2022-10-21T10:49:16.376Z,44.99
2022-10-21T10:50:37.735Z,44.68
2022-10-21T10:51:44.294Z,44.72
2022-10-21T10:52:49.582Z,44.72
2022-10-21T10:54:02.977Z,43.69
2022-10-21T10:55:14.420Z,44.00
2022-10-21T10:56:31.504Z,44.91
2022-10-21T10:57:44.354Z,44.43
2022-10-21T10:58:42.064Z,44.66
2022-10-21T10:59:47.450Z,44.28
2022-10-21T11:00:53.655Z,43.82
2022-10-21T11:02:04.280Z,43.69
2022-10-21T11:03:08.827Z,44.22
2022-10-21T11:04:20.155Z,44.73
2022-10-21T11:05:35.167Z,44.25
2022-10-21T11:06:43.981Z,43.96
2022-10-21T11:07:55.946Z,43.55
2022-10-21T11:09:00.347Z,43.80
2022-10-21T11:10:04.418Z,43.63
2022-10-21T11:11:10.234Z,44.86
2022-10-21T11:12:17.184Z,45.05
2022-10-21T11:13:22.675Z,44.92
2022-10-21T11:14:26.424Z,43.55
2022-10-21T11:15:30.623Z,44.40
2022-10-21T11:16:45.130Z,44.83
2022-10-21T11:17:42.778Z,45.13
2022-10-21T11:18:51.050Z,44.92
2022-10-21T11:20:12.324Z,44.61
2022-10-21T11:21:25.229Z,44.36
2022-10-21T11:22:47.105Z,43.91
2022-10-21T11:23:58.191Z,43.53
2022-10-21T11:25:04.594Z,43.55
2022-10-21T11:26:09.567Z,42.79
2022-10-21T11:27:27.863Z,43.07
2022-10-21T11:28:33.914Z,43.94
2022-10-21T11:29:47.941Z,43.45
2022-10-21T11:31:11.291Z,43.77
2022-10-21T11:32:21.069Z,43.39
2022-10-21T11:33:42.626Z,43.59
2022-10-21T11:34:49.787Z,44.52
2022-10-21T11:36:10.357Z,43.89
2022-10-21T11:37:15.493Z,43.81
2022-10-21T11:38:32.165Z,43.22
2022-10-21T11:39:48.031Z,43.93
2022-10-21T11:41:12.225Z,42.67
2022-10-21T11:42:20.182Z,43.03
2022-10-21T11:43:43.427Z,42.94
2022-10-21T11:44:54.559Z,43.38
2022-10-21T11:46:07.776Z,43.83
2022-10-21T11:47:25.162Z,42.92
2022-10-21T11:48:33.377Z,43.68
2022-10-21T11:49:45.447Z,43.89
2022-10-21T11:51:07.325Z,43.46
2022-10-21T11:52:17.827Z,45.14
2022-10-21T11:53:38.888Z,44.55
2022-10-21T11:55:09.053Z,44.44
2022-10-21T11:56:07.417Z,44.61
2022-10-21T11:57:21.157Z,44.02
2022-10-21T11:58:38.962Z,45.59
2022-10-21T11:59:56.556Z,43.98
2022-10-21T12:01:03.948Z,44.02
2022-10-21T12:02:11.262Z,43.83
2022-10-21T12:03:31.246Z,43.34
2022-10-21T12:04:39.102Z,43.61
2022-10-21T12:05:44.472Z,44.49
2022-10-21T12:07:10.940Z,44.99
2022-10-21T12:08:18.920Z,45.58
2022-10-21T12:09:35.840Z,46.11
2022-10-21T12:10:43.358Z,46.22
2022-10-21T12:11:48.188Z,46.57
2022-10-21T12:12:54.262Z,46.76
2022-10-21T12:13:59.461Z,46.93
2022-10-21T12:15:04.971Z,47.10
2022-10-21T12:16:11.978Z,47.48
2022-10-21T12:17:17.818Z,47.10
2022-10-21T12:18:24.181Z,46.84
2022-10-21T12:19:27.555Z,47.15
2022-10-21T12:20:37.163Z,47.46
2022-10-21T12:21:44.162Z,47.25
2022-10-21T12:22:49.355Z,46.85
2022-10-21T12:23:53.914Z,47.21
2022-10-21T12:25:05.228Z,46.75
2022-10-21T12:26:20.534Z,46.53
2022-10-21T12:27:29.889Z,46.59
2022-10-21T12:28:34.960Z,45.97
2022-10-21T12:29:58.677Z,45.85
2022-10-21T12:31:04.023Z,46.01
2022-10-21T12:32:21.628Z,45.10
2022-10-21T12:33:26.281Z,44.63
2022-10-21T12:34:30.192Z,44.30
2022-10-21T12:36:52.630Z,44.17
2022-10-21T12:37:56.792Z,45.77
2022-10-21T12:39:02.294Z,45.22
2022-10-21T12:40:16.447Z,46.23
2022-10-21T12:41:24.889Z,44.31
2022-10-21T12:42:31.188Z,45.35
2022-10-21T12:43:34.508Z,44.79
2022-10-21T12:44:39.842Z,44.82
2022-10-21T12:45:44.096Z,45.49
2022-10-21T12:46:52.203Z,46.26
2022-10-21T12:47:57.427Z,46.06
2022-10-21T12:49:05.485Z,46.91
2022-10-21T12:50:15.884Z,46.04
2022-10-21T12:51:20.748Z,46.71
2022-10-21T12:52:24.552Z,46.02
2022-10-21T12:53:30.054Z,46.84
2022-10-21T12:54:46.502Z,46.37
2022-10-21T12:55:56.071Z,45.85
2022-10-21T12:57:01.164Z,45.62
2022-10-21T12:58:06.833Z,46.07
2022-10-21T12:59:12.112Z,46.15
2022-10-21T13:00:16.185Z,46.03
2022-10-21T13:01:33.505Z,45.77
2022-10-21T13:02:39.980Z,45.87
2022-10-21T13:03:48.171Z,46.09
2022-10-21T13:04:52.836Z,46.04
2022-10-21T13:06:03.655Z,46.00
2022-10-21T13:07:17.813Z,46.38
2022-10-21T13:08:23.613Z,45.44
2022-10-21T13:09:33.806Z,45.32
2022-10-21T13:10:37.091Z,46.21
2022-10-21T13:11:41.129Z,45.84
2022-10-21T13:12:47.358Z,46.07
2022-10-21T13:13:58.056Z,45.80
2022-10-21T13:15:19.798Z,45.83
2022-10-21T13:16:23.978Z,46.08
2022-10-21T13:17:30.966Z,46.30
2022-10-21T13:18:53.754Z,46.34
2022-10-21T13:20:01.333Z,46.71
2022-10-21T13:21:07.231Z,47.53
2022-10-21T13:22:16.629Z,46.98
2022-10-21T13:23:33.571Z,46.89
2022-10-21T13:24:35.970Z,47.24
2022-10-21T13:25:39.538Z,47.25
2022-10-21T13:26:45.027Z,47.33
2022-10-21T13:28:07.638Z,47.62
2022-10-21T13:29:15.486Z,48.22
2022-10-21T13:30:36.893Z,48.43
2022-10-21T13:31:42.652Z,48.43
2022-10-21T13:32:48.302Z,48.91
2022-10-21T13:33:53.048Z,49.45
2022-10-21T13:35:03.351Z,49.61
2022-10-21T13:36:10.826Z,49.38
2022-10-21T13:37:17.555Z,50.14
2022-10-21T13:38:32.356Z,50.33
2022-10-21T13:39:35.929Z,51.06
2022-10-21T13:40:44.373Z,51.40
2022-10-21T13:41:51.531Z,52.21
2022-10-21T13:42:55.984Z,52.20
2022-10-21T13:44:04.294Z,52.17
2022-10-21T13:45:26.610Z,52.12
2022-10-21T13:46:37.863Z,51.99
2022-10-21T13:47:40.054Z,52.31
2022-10-21T13:48:44.834Z,52.37
2022-10-21T13:49:53.359Z,52.60
2022-10-21T13:50:55.709Z,52.58
2022-10-21T13:51:59.407Z,52.74
2022-10-21T13:53:04.400Z,52.79
2022-10-21T13:54:09.785Z,52.86
2022-10-21T13:55:24.054Z,52.75
2022-10-21T13:56:30.572Z,53.03
2022-10-21T13:57:36.400Z,52.80
2022-10-21T13:58:45.041Z,51.94
2022-10-21T13:59:50.425Z,51.88
2022-10-21T14:00:57.997Z,52.10
2022-10-21T14:02:00.039Z,52.82
2022-10-21T14:03:07.746Z,53.20
2022-10-21T14:04:14.056Z,53.05
2022-10-21T14:05:30.793Z,53.05
2022-10-21T14:06:37.732Z,53.38
2022-10-21T14:07:41.332Z,53.37
2022-10-21T14:08:47.687Z,53.72
2022-10-21T14:09:58.035Z,53.76
2022-10-21T14:11:05.959Z,53.90
2022-10-21T14:12:11.250Z,54.45
2022-10-21T14:13:15.831Z,54.58
2022-10-21T14:14:23.083Z,54.06
2022-10-21T14:15:28.019Z,53.87
2022-10-21T14:16:34.877Z,54.18
2022-10-21T14:17:40.311Z,53.69
2022-10-21T14:18:45.149Z,53.89
2022-10-21T14:19:49.665Z,54.40
2022-10-21T14:20:55.154Z,54.38
2022-10-21T14:22:00.591Z,54.57